createdAt,value
2017-04-20T00:00:26.582Z,0
2017-04-20T00:02:40.300Z,0
2017-04-20T00:03:21.165Z,0
2017-04-20T00:04:02.044Z,0
2017-04-20T00:04:42.921Z,0
2017-04-20T00:05:23.805Z,0
2017-04-20T00:06:04.690Z,0
2017-04-20T00:06:45.557Z,0
2017-04-20T00:07:26.434Z,0
2017-04-20T00:08:07.310Z,0
2017-04-20T00:08:48.180Z,0
2017-04-20T00:09:29.064Z,0
2017-04-20T00:10:09.938Z,0
2017-04-20T00:10:50.811Z,0
2017-04-20T00:11:31.682Z,0
2017-04-20T00:12:12.555Z,0
2017-04-20T00:12:53.435Z,0
2017-04-20T00:13:34.316Z,0
2017-04-20T00:14:15.189Z,0
2017-04-20T00:14:56.060Z,0
2017-04-20T00:15:36.935Z,0
2017-04-20T00:16:17.814Z,0
2017-04-20T00:16:58.684Z,0
2017-04-20T00:17:39.542Z,0
2017-04-20T00:18:20.421Z,0
2017-04-20T00:19:01.289Z,0
2017-04-20T00:19:42.160Z,0
2017-04-20T00:20:23.042Z,0
2017-04-20T00:21:03.917Z,0
2017-04-20T00:21:44.779Z,0
2017-04-20T00:22:25.661Z,0
2017-04-20T00:23:06.546Z,0
2017-04-20T00:23:47.414Z,0
2017-04-20T00:24:28.291Z,0
2017-04-20T00:25:09.170Z,0
2017-04-20T00:25:50.044Z,0
2017-04-20T00:26:30.920Z,0
2017-04-20T00:27:11.799Z,0
2017-04-20T00:27:52.669Z,0
2017-04-20T00:28:33.539Z,0
2017-04-20T00:29:14.406Z,0
2017-04-20T00:29:55.279Z,0
2017-04-20T00:30:36.162Z,0
2017-04-20T00:31:17.038Z,0
2017-04-20T00:31:57.911Z,0
2017-04-20T00:32:38.791Z,0
2017-04-20T00:33:19.653Z,0
2017-04-20T00:34:00.531Z,0
2017-04-20T00:34:41.393Z,0
2017-04-20T00:35:22.321Z,0
2017-04-20T00:36:03.201Z,0
2017-04-20T00:36:44.068Z,0
2017-04-20T00:37:24.943Z,0
2017-04-20T00:38:05.823Z,0
2017-04-20T00:38:46.680Z,0
2017-04-20T00:39:27.560Z,0
2017-04-20T00:40:08.425Z,0
2017-04-20T00:40:49.300Z,0
2017-04-20T00:41:30.187Z,0
2017-04-20T00:42:11.047Z,0
2017-04-20T00:42:51.922Z,0
2017-04-20T00:43:32.797Z,0
2017-04-20T00:44:13.662Z,0
2017-04-20T00:44:54.523Z,0
2017-04-20T00:45:35.401Z,0
2017-04-20T00:46:16.278Z,0
2017-04-20T00:46:57.148Z,0
2017-04-20T00:47:38.021Z,0
2017-04-20T00:48:18.897Z,0
2017-04-20T00:48:59.774Z,0
2017-04-20T00:49:40.656Z,0
2017-04-20T00:50:21.546Z,0
2017-04-20T00:51:02.437Z,0
2017-04-20T00:51:43.304Z,0
2017-04-20T00:53:42.084Z,0
2017-04-20T00:54:23.143Z,0
2017-04-20T00:55:04.053Z,0
2017-04-20T00:55:44.934Z,0
2017-04-20T00:56:25.853Z,0
2017-04-20T00:57:06.760Z,0
2017-04-20T00:57:47.594Z,0
2017-04-20T00:58:28.483Z,0
2017-04-20T00:59:09.365Z,0
2017-04-20T00:59:50.236Z,0
2017-04-20T01:00:31.115Z,0
2017-04-20T01:01:11.995Z,0
2017-04-20T01:01:52.878Z,0
2017-04-20T01:02:33.746Z,0
2017-04-20T01:03:14.614Z,0
2017-04-20T01:03:55.539Z,0
2017-04-20T01:04:36.414Z,0
2017-04-20T01:05:17.288Z,0
2017-04-20T01:05:58.161Z,0
2017-04-20T01:06:39.040Z,0
2017-04-20T01:07:19.910Z,0
2017-04-20T01:08:00.829Z,0
2017-04-20T01:08:41.664Z,0
2017-04-20T01:09:22.537Z,0
2017-04-20T01:10:03.408Z,0
2017-04-20T01:10:44.292Z,0
2017-04-20T01:11:25.178Z,0
2017-04-20T01:12:06.045Z,0
2017-04-20T01:12:46.924Z,0
2017-04-20T01:13:27.806Z,0
2017-04-20T01:14:08.687Z,0
2017-04-20T01:14:49.561Z,0
2017-04-20T01:15:30.435Z,0
2017-04-20T01:16:11.304Z,0
2017-04-20T01:16:52.181Z,0
2017-04-20T01:17:33.039Z,0
2017-04-20T01:18:13.911Z,0
2017-04-20T01:18:54.780Z,0
2017-04-20T01:19:35.645Z,0
2017-04-20T01:20:16.526Z,0
2017-04-20T01:20:57.402Z,0
2017-04-20T01:21:38.298Z,0
2017-04-20T01:22:19.176Z,0
2017-04-20T01:23:00.071Z,0
2017-04-20T01:23:40.951Z,0
2017-04-20T01:24:21.825Z,0
2017-04-20T01:25:02.700Z,0
2017-04-20T01:25:43.631Z,0
2017-04-20T01:26:24.489Z,0
2017-04-20T01:27:05.350Z,0
2017-04-20T01:27:46.215Z,0
2017-04-20T01:28:27.091Z,0
2017-04-20T01:29:07.967Z,0
2017-04-20T01:29:48.875Z,0
2017-04-20T01:30:29.757Z,0
2017-04-20T01:31:10.626Z,0
2017-04-20T01:31:51.504Z,0
2017-04-20T01:32:32.402Z,0
2017-04-20T01:33:13.283Z,0
2017-04-20T01:33:54.140Z,0
2017-04-20T01:34:35.012Z,0
2017-04-20T01:35:15.903Z,0
2017-04-20T01:35:56.778Z,0
2017-04-20T01:36:37.650Z,0
2017-04-20T01:37:18.527Z,0
2017-04-20T01:37:59.399Z,0
2017-04-20T01:38:40.282Z,0
2017-04-20T01:39:21.160Z,0
2017-04-20T01:40:02.043Z,0
2017-04-20T01:40:42.917Z,0
2017-04-20T01:41:23.781Z,0
2017-04-20T01:42:04.668Z,0
2017-04-20T01:42:45.526Z,0
2017-04-20T01:43:26.404Z,0
2017-04-20T01:44:07.280Z,0
2017-04-20T01:44:48.153Z,0
2017-04-20T01:45:29.028Z,0
2017-04-20T01:46:09.902Z,0
2017-04-20T01:46:50.785Z,0
2017-04-20T01:47:31.660Z,0
2017-04-20T01:48:12.545Z,0
2017-04-20T01:48:53.417Z,0
2017-04-20T01:49:34.286Z,0
2017-04-20T01:50:15.165Z,0
2017-04-20T01:50:56.082Z,0
2017-04-20T01:51:36.958Z,0
2017-04-20T01:52:17.833Z,0
2017-04-20T01:52:58.710Z,0
2017-04-20T01:53:39.580Z,0
2017-04-20T01:54:20.456Z,0
2017-04-20T01:55:01.350Z,0
2017-04-20T01:55:42.217Z,0
2017-04-20T01:56:23.089Z,0
2017-04-20T01:57:03.959Z,0
2017-04-20T01:57:44.826Z,0
2017-04-20T01:58:25.709Z,0
2017-04-20T01:59:06.576Z,0
2017-04-20T01:59:47.452Z,0
2017-04-20T02:00:28.318Z,0
2017-04-20T02:01:09.186Z,0
2017-04-20T02:01:50.039Z,0
2017-04-20T02:02:30.927Z,0
2017-04-20T02:03:11.790Z,0
2017-04-20T02:03:52.660Z,0
2017-04-20T02:04:33.532Z,0
2017-04-20T02:05:14.393Z,0
2017-04-20T02:05:55.287Z,0
2017-04-20T02:06:36.759Z,0
2017-04-20T02:07:17.634Z,0
2017-04-20T02:07:58.503Z,0
2017-04-20T02:08:39.376Z,0
2017-04-20T02:09:20.265Z,0
2017-04-20T02:10:01.120Z,0
2017-04-20T02:10:41.999Z,0
2017-04-20T02:11:22.879Z,0
2017-04-20T02:12:03.737Z,0
2017-04-20T02:12:44.627Z,0
2017-04-20T02:13:25.503Z,0
2017-04-20T02:14:06.377Z,0
2017-04-20T02:14:47.231Z,0
2017-04-20T02:15:28.107Z,0
2017-04-20T02:16:08.977Z,0
2017-04-20T02:16:49.841Z,0
2017-04-20T02:17:30.716Z,0
2017-04-20T02:18:11.586Z,0
2017-04-20T02:18:52.468Z,0
2017-04-20T02:19:33.919Z,0
2017-04-20T02:20:14.800Z,0
2017-04-20T02:20:55.677Z,0
2017-04-20T02:21:36.570Z,0
2017-04-20T02:22:17.447Z,0
2017-04-20T02:22:58.324Z,0
2017-04-20T02:23:39.191Z,0
2017-04-20T02:24:20.060Z,0
2017-04-20T02:25:00.938Z,0
2017-04-20T02:25:41.813Z,0
2017-04-20T02:26:22.695Z,0
2017-04-20T02:27:03.569Z,0
2017-04-20T02:27:44.431Z,0
2017-04-20T02:28:25.303Z,0
2017-04-20T02:29:06.466Z,0
2017-04-20T02:29:47.345Z,0
2017-04-20T02:30:28.214Z,0
2017-04-20T02:31:09.096Z,0
2017-04-20T02:31:49.973Z,0
2017-04-20T02:32:30.837Z,0
2017-04-20T02:33:11.706Z,0
2017-04-20T02:33:52.577Z,0
2017-04-20T02:34:33.442Z,0
2017-04-20T02:35:15.893Z,0
2017-04-20T02:35:58.534Z,0
2017-04-20T02:36:39.410Z,0
2017-04-20T02:37:20.289Z,0
2017-04-20T02:38:01.157Z,0
2017-04-20T02:38:42.037Z,0
2017-04-20T02:39:22.918Z,0
2017-04-20T02:40:03.807Z,0
2017-04-20T02:40:44.683Z,0
2017-04-20T02:41:25.564Z,0
2017-04-20T02:42:06.448Z,0
2017-04-20T02:42:47.326Z,0
2017-04-20T02:43:28.191Z,0
2017-04-20T02:44:09.072Z,0
2017-04-20T02:44:49.979Z,0
2017-04-20T02:45:30.836Z,0
2017-04-20T02:46:11.718Z,0
2017-04-20T02:46:52.593Z,0
2017-04-20T02:47:33.472Z,0
2017-04-20T02:48:14.369Z,0
2017-04-20T02:48:55.248Z,0
2017-04-20T02:49:36.126Z,0
2017-04-20T02:50:16.998Z,0
2017-04-20T02:50:57.883Z,0
2017-04-20T02:51:40.406Z,0
2017-04-20T02:52:21.275Z,0
2017-04-20T02:53:02.150Z,0
2017-04-20T02:53:43.028Z,0
2017-04-20T02:54:23.905Z,0
2017-04-20T02:55:04.778Z,0
2017-04-20T02:55:45.656Z,0
2017-04-20T02:56:26.539Z,0
2017-04-20T02:57:07.416Z,0
2017-04-20T02:57:48.279Z,0
2017-04-20T02:58:29.166Z,0
2017-04-20T02:59:10.053Z,0
2017-04-20T02:59:50.928Z,0
2017-04-20T03:00:31.810Z,0
2017-04-20T03:01:12.686Z,0
2017-04-20T03:03:11.429Z,0
2017-04-20T03:03:52.307Z,0
2017-04-20T03:04:33.183Z,0
2017-04-20T03:05:14.035Z,0
2017-04-20T03:05:54.894Z,0
2017-04-20T03:06:35.770Z,0
2017-04-20T03:07:16.628Z,0
2017-04-20T03:07:57.482Z,0
2017-04-20T03:08:38.335Z,0
2017-04-20T03:09:19.185Z,0
2017-04-20T03:10:00.041Z,0
2017-04-20T03:10:40.870Z,0
2017-04-20T03:11:21.748Z,0
2017-04-20T03:12:02.577Z,0
2017-04-20T03:12:43.431Z,0
2017-04-20T03:13:24.293Z,0
2017-04-20T03:14:05.157Z,0
2017-04-20T03:14:46.022Z,0
2017-04-20T03:15:26.888Z,0
2017-04-20T03:16:07.763Z,0
2017-04-20T03:16:48.633Z,0
2017-04-20T03:17:29.506Z,0
2017-04-20T03:18:10.354Z,0
2017-04-20T03:18:51.218Z,0
2017-04-20T03:19:32.110Z,0
2017-04-20T03:20:12.985Z,0
2017-04-20T03:20:53.857Z,0
2017-04-20T03:21:34.728Z,0
2017-04-20T03:22:15.603Z,0
2017-04-20T03:22:56.476Z,0
2017-04-20T03:23:37.365Z,0
2017-04-20T03:24:18.253Z,0
2017-04-20T03:24:59.113Z,0
2017-04-20T03:25:39.980Z,0
2017-04-20T03:26:20.865Z,0
2017-04-20T03:27:01.778Z,0
2017-04-20T03:27:42.648Z,0
2017-04-20T03:29:41.725Z,0
2017-04-20T03:30:24.207Z,0
2017-04-20T03:32:37.910Z,0
2017-04-20T03:33:18.797Z,0
2017-04-20T03:33:59.654Z,0
2017-04-20T03:34:40.533Z,0
2017-04-20T03:35:21.388Z,0
2017-04-20T03:36:02.252Z,0
2017-04-20T03:36:43.106Z,0
2017-04-20T03:37:23.960Z,0
2017-04-20T03:38:04.823Z,0
2017-04-20T03:38:45.675Z,0
2017-04-20T03:39:26.551Z,0
2017-04-20T03:40:07.425Z,0
2017-04-20T03:40:48.305Z,0
2017-04-20T03:41:29.250Z,0
2017-04-20T03:43:46.976Z,0
2017-04-20T03:44:27.851Z,0
2017-04-20T03:46:42.518Z,0
2017-04-20T03:47:23.389Z,0
2017-04-20T03:57:44.970Z,5
2017-04-20T03:58:25.845Z,5
2017-04-20T03:59:08.646Z,5
2017-04-20T03:59:49.517Z,5
2017-04-20T04:00:30.387Z,5
2017-04-20T04:01:11.271Z,5
2017-04-20T04:01:52.137Z,10
2017-04-20T04:02:33.016Z,10
2017-04-20T04:03:13.892Z,10
2017-04-20T04:03:54.762Z,10
2017-04-20T04:04:35.636Z,10
2017-04-20T04:05:16.492Z,10
2017-04-20T04:05:57.352Z,10
2017-04-20T04:06:38.209Z,10
2017-04-20T04:07:19.072Z,15
2017-04-20T04:07:59.956Z,15
2017-04-20T04:08:40.836Z,15
2017-04-20T04:09:21.716Z,15
2017-04-20T04:10:02.574Z,15
2017-04-20T04:10:43.437Z,15
2017-04-20T04:11:24.308Z,15
2017-04-20T04:12:05.173Z,20
2017-04-20T04:12:46.036Z,20
2017-04-20T04:13:26.915Z,20
2017-04-20T04:14:07.803Z,20
2017-04-20T04:14:48.685Z,20
2017-04-20T04:15:29.563Z,20
2017-04-20T04:20:34.699Z,25
2017-04-20T04:21:15.573Z,30
2017-04-20T04:21:56.439Z,30
2017-04-20T04:22:37.308Z,30
2017-04-20T04:23:18.163Z,30
2017-04-20T04:23:59.046Z,30
2017-04-20T04:24:39.908Z,35
2017-04-20T04:25:20.773Z,35
2017-04-20T04:26:01.673Z,35
2017-04-20T04:26:45.492Z,35
2017-04-20T04:27:26.366Z,35
2017-04-20T04:28:07.240Z,35
2017-04-20T04:28:48.098Z,40
2017-04-20T04:29:28.972Z,40
2017-04-20T04:30:09.856Z,40
2017-04-20T04:30:50.736Z,40
2017-04-20T04:31:31.609Z,45
2017-04-20T04:32:12.470Z,45
2017-04-20T04:32:53.329Z,45
2017-04-20T04:33:34.189Z,45
2017-04-20T04:34:15.049Z,45
2017-04-20T04:34:55.907Z,50
2017-04-20T04:35:36.778Z,50
2017-04-20T04:38:53.187Z,55
2017-04-20T04:39:34.105Z,55
2017-04-20T04:40:14.979Z,55
2017-04-20T04:40:56.565Z,60
2017-04-20T04:41:37.428Z,60
2017-04-20T04:42:18.292Z,60
2017-04-20T04:42:59.158Z,60
2017-04-20T04:43:40.033Z,60
2017-04-20T04:44:20.902Z,60
2017-04-20T04:45:01.784Z,65
2017-04-20T04:45:42.677Z,65
2017-04-20T04:46:25.342Z,65
2017-04-20T04:50:19.075Z,70
2017-04-20T04:50:59.978Z,70
2017-04-20T04:51:40.860Z,70
2017-04-20T04:52:21.725Z,75
2017-04-20T04:53:02.603Z,75
2017-04-20T04:59:55.271Z,85
2017-04-20T05:00:38.155Z,85
2017-04-20T05:01:19.018Z,85
2017-04-20T05:01:59.890Z,85
2017-04-20T05:02:40.789Z,85
2017-04-20T05:03:21.669Z,85
2017-04-20T05:04:02.543Z,90
2017-04-20T05:04:43.405Z,90
2017-04-20T05:05:24.318Z,90
2017-04-20T05:06:05.197Z,90
2017-04-20T05:08:50.475Z,90
2017-04-20T05:09:31.355Z,90
2017-04-20T05:10:12.215Z,90
2017-04-20T05:10:53.076Z,90
2017-04-20T05:11:33.955Z,90
2017-04-20T05:12:14.849Z,85
2017-04-20T05:12:55.724Z,85
2017-04-20T05:13:36.596Z,85
2017-04-20T05:14:17.466Z,85
2017-04-20T05:14:58.326Z,85
2017-04-20T05:15:39.208Z,85
2017-04-20T05:16:20.045Z,85
2017-04-20T05:17:00.897Z,80
2017-04-20T05:17:41.756Z,80
2017-04-20T05:18:22.619Z,80
2017-04-20T05:19:04.984Z,80
2017-04-20T05:19:45.861Z,80
2017-04-20T05:20:26.716Z,80
2017-04-20T05:21:07.584Z,75
2017-04-20T05:21:48.447Z,80
2017-04-20T05:22:29.318Z,80
2017-04-20T05:23:10.187Z,80
2017-04-20T05:23:51.069Z,80
2017-04-20T05:24:31.940Z,85
2017-04-20T05:25:12.811Z,85
2017-04-20T05:25:53.681Z,90
2017-04-20T05:26:34.580Z,95
2017-04-20T05:27:15.474Z,95
2017-04-20T05:27:56.352Z,100
2017-04-20T05:28:37.232Z,100
2017-04-20T05:29:18.085Z,100
2017-04-20T05:29:58.960Z,100
2017-04-20T05:30:39.851Z,100
2017-04-20T05:31:20.720Z,100
2017-04-20T05:32:01.592Z,105
2017-04-20T05:32:42.456Z,105
2017-04-20T05:33:23.320Z,105
2017-04-20T05:34:04.182Z,105
2017-04-20T05:34:45.032Z,105
2017-04-20T05:35:25.891Z,105
2017-04-20T05:36:06.752Z,105
2017-04-20T05:36:47.633Z,105
2017-04-20T05:37:28.529Z,105
2017-04-20T05:38:09.405Z,105
2017-04-20T05:38:50.288Z,105
2017-04-20T05:39:31.153Z,105
2017-04-20T05:40:12.029Z,110
2017-04-20T05:40:52.919Z,110
2017-04-20T05:41:33.829Z,110
2017-04-20T05:42:14.702Z,115
2017-04-20T05:42:55.590Z,115
2017-04-20T05:43:36.501Z,115
2017-04-20T05:44:17.364Z,115
2017-04-20T05:44:58.284Z,110
2017-04-20T05:45:39.148Z,110
2017-04-20T05:46:20.025Z,110
2017-04-20T05:47:00.890Z,110
2017-04-20T05:47:41.775Z,110
2017-04-20T05:48:22.652Z,110
2017-04-20T05:49:03.551Z,110
2017-04-20T05:49:44.418Z,110
2017-04-20T05:50:25.309Z,110
2017-04-20T05:51:06.175Z,110
2017-04-20T05:51:48.990Z,110
2017-04-20T05:52:31.638Z,110
2017-04-20T05:53:12.516Z,110
2017-04-20T05:53:54.393Z,105
2017-04-20T05:54:37.003Z,105
2017-04-20T05:55:17.897Z,110
2017-04-20T05:56:00.634Z,115
2017-04-20T05:56:41.500Z,115
2017-04-20T05:57:22.355Z,120
2017-04-20T05:58:03.211Z,125
2017-04-20T05:58:44.103Z,130
2017-04-20T05:59:25.024Z,135
2017-04-20T06:01:41.524Z,150
2017-04-20T06:02:22.413Z,150
2017-04-20T06:03:05.088Z,155
2017-04-20T06:05:36.526Z,160
2017-04-20T06:06:19.039Z,165
2017-04-20T06:06:59.918Z,170
2017-04-20T06:07:40.787Z,175
2017-04-20T06:08:21.681Z,175
2017-04-20T06:09:02.537Z,175
2017-04-20T06:09:43.405Z,170
2017-04-20T06:10:24.273Z,165
2017-04-20T06:11:05.135Z,165
2017-04-20T06:13:11.805Z,185
2017-04-20T06:13:52.743Z,195
2017-04-20T06:14:33.624Z,205
2017-04-20T06:15:14.498Z,210
2017-04-20T06:15:55.388Z,205
2017-04-20T06:16:36.284Z,195
2017-04-20T06:17:17.139Z,190
2017-04-20T06:17:58.016Z,185
2017-04-20T06:18:39.006Z,185
2017-04-20T06:19:19.868Z,180
2017-04-20T06:20:00.748Z,180
2017-04-20T06:20:41.635Z,185
2017-04-20T06:21:22.500Z,185
2017-04-20T06:22:03.370Z,185
2017-04-20T06:24:32.472Z,165
2017-04-20T06:25:13.324Z,165
2017-04-20T06:25:54.199Z,165
2017-04-20T06:26:35.071Z,160
2017-04-20T06:27:15.952Z,160
2017-04-20T06:27:56.837Z,160
2017-04-20T06:28:37.711Z,165
2017-04-20T06:29:18.588Z,165
2017-04-20T06:29:59.547Z,165
2017-04-20T06:30:40.420Z,165
2017-04-20T06:31:21.362Z,170
2017-04-20T06:32:02.238Z,170
2017-04-20T06:32:43.119Z,170
2017-04-20T06:33:24.011Z,170
2017-04-20T06:34:04.868Z,170
2017-04-20T06:34:45.730Z,170
2017-04-20T06:35:26.596Z,170
2017-04-20T06:38:50.195Z,170
2017-04-20T06:39:31.054Z,170
2017-04-20T06:40:11.939Z,175
2017-04-20T06:40:52.823Z,175
2017-04-20T06:41:33.681Z,175
2017-04-20T06:42:14.547Z,175
2017-04-20T06:42:55.418Z,180
2017-04-20T06:43:36.332Z,180
2017-04-20T06:44:17.211Z,180
2017-04-20T06:44:58.088Z,180
2017-04-20T06:45:38.943Z,185
2017-04-20T06:46:19.809Z,185
2017-04-20T06:47:00.680Z,185
2017-04-20T06:47:41.553Z,190
2017-04-20T06:48:22.420Z,190
2017-04-20T06:49:03.340Z,190
2017-04-20T06:49:44.200Z,195
2017-04-20T06:50:25.066Z,195
2017-04-20T06:51:05.931Z,205
2017-04-20T06:51:46.852Z,205
2017-04-20T06:52:27.733Z,205
2017-04-20T06:53:08.592Z,220
2017-04-20T06:53:49.508Z,220
2017-04-20T06:54:30.393Z,240
2017-04-20T06:55:11.276Z,230
2017-04-20T06:55:52.132Z,225
2017-04-20T06:56:33.010Z,225
2017-04-20T06:57:13.895Z,225
2017-04-20T06:57:54.777Z,230
2017-04-20T06:58:35.651Z,235
2017-04-20T06:59:16.515Z,245
2017-04-20T06:59:57.379Z,245
2017-04-20T07:00:40.176Z,255
2017-04-20T07:01:21.052Z,260
2017-04-20T07:02:01.924Z,265
2017-04-20T07:02:42.842Z,270
2017-04-20T07:03:23.711Z,285
2017-04-20T07:05:37.407Z,380
2017-04-20T07:06:18.301Z,405
2017-04-20T07:06:59.186Z,425
2017-04-20T07:07:40.050Z,415
2017-04-20T07:08:20.939Z,390
2017-04-20T07:09:01.816Z,365
2017-04-20T07:09:42.694Z,350
2017-04-20T07:10:23.561Z,345
2017-04-20T07:11:07.116Z,335
2017-04-20T07:11:49.750Z,315
2017-04-20T07:12:30.627Z,310
2017-04-20T07:13:11.492Z,300
2017-04-20T07:13:54.935Z,330
2017-04-20T07:14:37.612Z,315
2017-04-20T07:15:18.466Z,330
2017-04-20T07:15:59.332Z,340
2017-04-20T07:16:42.127Z,330
2017-04-20T07:17:22.990Z,325
2017-04-20T07:20:39.944Z,305
2017-04-20T07:21:20.756Z,310
2017-04-20T07:26:10.534Z,335
2017-04-20T07:26:51.404Z,335
2017-04-20T07:27:32.266Z,340
2017-04-20T07:28:14.852Z,355
2017-04-20T07:28:57.463Z,350
2017-04-20T07:29:40.320Z,360
2017-04-20T07:30:22.818Z,360
2017-04-20T07:31:03.716Z,370
2017-04-20T07:33:33.840Z,395
2017-04-20T07:34:14.691Z,1260
2017-04-20T07:34:55.558Z,410
2017-04-20T07:35:36.437Z,405
2017-04-20T07:36:17.303Z,400
2017-04-20T07:36:58.176Z,390
2017-04-20T07:37:39.192Z,390
2017-04-20T07:38:20.060Z,390
2017-04-20T07:40:38.624Z,395
2017-04-20T07:41:19.513Z,390
2017-04-20T07:42:00.398Z,390
2017-04-20T07:42:41.273Z,395
2017-04-20T07:43:22.155Z,400
2017-04-20T07:44:03.048Z,395
2017-04-20T07:44:43.933Z,430
2017-04-20T07:45:24.810Z,690
2017-04-20T07:46:05.678Z,905
2017-04-20T07:46:46.573Z,1520
2017-04-20T07:47:27.460Z,910
2017-04-20T07:48:08.344Z,420
2017-04-20T07:48:49.226Z,405
2017-04-20T07:49:30.112Z,420
2017-04-20T07:50:10.999Z,1595
2017-04-20T07:50:51.874Z,1525
2017-04-20T07:51:32.750Z,1490
2017-04-20T07:52:13.641Z,1720
2017-04-20T07:52:54.553Z,1760
2017-04-20T07:53:35.431Z,1780
2017-04-20T07:54:16.334Z,1785
2017-04-20T07:54:57.226Z,1785
2017-04-20T07:55:39.503Z,1800
2017-04-20T07:56:20.382Z,1815
2017-04-20T07:57:01.264Z,1725
2017-04-20T07:57:42.142Z,1665
2017-04-20T07:58:23.028Z,1685
2017-04-20T07:59:03.916Z,1680
2017-04-20T07:59:44.797Z,1685
2017-04-20T08:00:25.686Z,1720
2017-04-20T08:01:06.576Z,1755
2017-04-20T08:01:49.270Z,1695
2017-04-20T08:02:30.160Z,1675
2017-04-20T08:03:12.649Z,1740
2017-04-20T08:03:55.142Z,1810
2017-04-20T08:04:36.039Z,1835
2017-04-20T08:05:16.921Z,1900
2017-04-20T08:05:57.812Z,1945
2017-04-20T08:06:38.681Z,1985
2017-04-20T08:07:19.581Z,1985
2017-04-20T08:08:00.467Z,2010
2017-04-20T08:08:41.368Z,1980
2017-04-20T08:09:22.261Z,1635
2017-04-20T08:10:03.152Z,1875
2017-04-20T08:10:44.041Z,1835
2017-04-20T08:11:24.915Z,1800
2017-04-20T08:12:08.789Z,1660
2017-04-20T08:12:49.693Z,1540
2017-04-20T08:13:30.569Z,1435
2017-04-20T08:14:11.477Z,1385
2017-04-20T08:14:52.383Z,1320
2017-04-20T08:15:33.275Z,1355
2017-04-20T08:16:14.157Z,1385
2017-04-20T08:16:55.053Z,1470
2017-04-20T08:17:35.946Z,1620
2017-04-20T08:18:16.837Z,1710
2017-04-20T08:18:57.724Z,1845
2017-04-20T08:19:38.611Z,1940
2017-04-20T08:20:21.205Z,2025
2017-04-20T08:22:14.816Z,2155
2017-04-20T08:22:55.704Z,2195
2017-04-20T08:23:36.609Z,2235
2017-04-20T08:24:17.500Z,2240
2017-04-20T08:24:58.384Z,2270
2017-04-20T08:25:39.275Z,2250
2017-04-20T08:26:20.176Z,2155
2017-04-20T08:27:01.066Z,2110
2017-04-20T08:27:41.962Z,1995
2017-04-20T08:28:22.847Z,1960
2017-04-20T08:29:03.789Z,2010
2017-04-20T08:29:44.665Z,2070
2017-04-20T08:30:25.555Z,2125
2017-04-20T08:31:06.401Z,635
2017-04-20T08:31:47.290Z,2060
2017-04-20T08:32:28.180Z,2045
2017-04-20T08:33:09.060Z,1980
2017-04-20T08:33:49.939Z,1260
2017-04-20T08:34:30.840Z,1840
2017-04-20T08:35:11.718Z,2050
2017-04-20T08:35:52.609Z,2075
2017-04-20T08:36:33.465Z,2125
2017-04-20T08:37:14.363Z,2065
2017-04-20T08:37:55.242Z,1985
2017-04-20T08:38:36.137Z,1885
2017-04-20T08:39:16.999Z,1600
2017-04-20T08:39:57.893Z,1815
2017-04-20T08:40:38.883Z,1585
2017-04-20T08:41:19.739Z,1840
2017-04-20T08:42:01.476Z,1815
2017-04-20T08:46:06.100Z,2125
2017-04-20T08:46:47.017Z,2165
2017-04-20T08:47:27.939Z,2190
2017-04-20T08:48:08.835Z,2140
2017-04-20T08:48:51.483Z,2115
2017-04-20T08:49:32.374Z,2140
2017-04-20T08:50:13.286Z,2145
2017-04-20T08:53:15.293Z,2110
2017-04-20T08:53:56.193Z,2075
2017-04-20T08:56:10.328Z,2330
2017-04-20T08:56:51.236Z,2410
2017-04-20T08:57:32.135Z,2420
2017-04-20T08:58:13.030Z,2365
2017-04-20T08:58:53.895Z,2265
2017-04-20T08:59:34.793Z,2210
2017-04-20T09:00:15.676Z,1840
2017-04-20T09:00:56.560Z,1445
2017-04-20T09:01:37.446Z,1555
2017-04-20T09:02:18.330Z,2035
2017-04-20T09:02:59.212Z,1980
2017-04-20T09:03:40.107Z,1980
2017-04-20T09:04:20.977Z,1945
2017-04-20T09:05:01.869Z,1490
2017-04-20T09:05:42.762Z,855
2017-04-20T09:06:23.654Z,525
2017-04-20T09:07:04.565Z,515
2017-04-20T09:07:45.469Z,515
2017-04-20T09:08:26.354Z,355
2017-04-20T09:09:07.236Z,350
2017-04-20T09:09:48.122Z,470
2017-04-20T09:10:29.009Z,410
2017-04-20T09:11:09.909Z,355
2017-04-20T09:11:50.796Z,330
2017-04-20T09:12:31.701Z,320
2017-04-20T09:13:12.589Z,465
2017-04-20T09:13:53.471Z,400
2017-04-20T09:14:34.356Z,370
2017-04-20T09:15:15.245Z,365
2017-04-20T09:15:56.137Z,375
2017-04-20T09:16:37.010Z,460
2017-04-20T09:17:17.894Z,455
2017-04-20T09:18:00.658Z,450
2017-04-20T09:18:41.528Z,445
2017-04-20T09:19:22.407Z,445
2017-04-20T09:20:03.305Z,455
2017-04-20T09:20:44.173Z,360
2017-04-20T09:21:25.050Z,440
2017-04-20T09:22:05.939Z,400
2017-04-20T09:22:46.825Z,465
2017-04-20T09:23:27.719Z,460
2017-04-20T09:24:08.608Z,450
2017-04-20T09:24:49.480Z,440
2017-04-20T09:25:30.371Z,455
2017-04-20T09:26:11.255Z,435
2017-04-20T09:28:20.247Z,315
2017-04-20T09:29:01.132Z,410
2017-04-20T09:29:42.084Z,475
2017-04-20T09:30:22.876Z,460
2017-04-20T09:32:36.642Z,2015
2017-04-20T09:33:17.528Z,2390
2017-04-20T09:40:41.746Z,2245
2017-04-20T09:41:22.632Z,2350
2017-04-20T09:42:03.511Z,2460
2017-04-20T09:42:44.427Z,2570
2017-04-20T09:44:48.496Z,2620
2017-04-20T09:45:29.401Z,2760
2017-04-20T09:46:10.270Z,2790
2017-04-20T09:46:51.185Z,2825
2017-04-20T09:47:32.081Z,2830
2017-04-20T09:48:12.971Z,2780
2017-04-20T09:48:53.857Z,2760
2017-04-20T09:49:34.857Z,2740
2017-04-20T09:50:15.770Z,2800
2017-04-20T09:50:56.650Z,2805
2017-04-20T09:51:37.539Z,2855
2017-04-20T09:52:18.465Z,2385
2017-04-20T09:53:00.186Z,715
2017-04-20T09:53:41.087Z,2725
2017-04-20T09:54:22.004Z,2820
2017-04-20T09:55:04.496Z,2885
2017-04-20T09:55:45.407Z,2975
2017-04-20T09:56:26.294Z,2915
2017-04-20T09:57:07.169Z,2770
2017-04-20T09:59:01.836Z,2480
2017-04-20T09:59:42.724Z,2425
2017-04-20T10:01:51.884Z,2205
2017-04-20T10:02:32.781Z,2355
2017-04-20T10:03:13.645Z,2440
2017-04-20T10:03:54.536Z,2010
2017-04-20T10:04:35.440Z,1185
2017-04-20T10:05:16.343Z,565
2017-04-20T10:05:57.230Z,865
2017-04-20T10:06:38.121Z,1895
2017-04-20T10:07:19.006Z,2870
2017-04-20T10:07:59.973Z,3010
2017-04-20T10:08:40.855Z,2880
2017-04-20T10:09:21.744Z,2635
2017-04-20T10:10:02.690Z,2480
2017-04-20T10:10:43.580Z,2445
2017-04-20T10:11:24.471Z,2395
2017-04-20T10:12:05.370Z,2325
2017-04-20T10:12:46.255Z,2330
2017-04-20T10:13:27.155Z,2425
2017-04-20T10:14:08.050Z,2540
2017-04-20T10:14:48.941Z,2640
2017-04-20T10:15:29.845Z,2655
2017-04-20T10:16:10.741Z,2665
2017-04-20T10:16:51.621Z,2670
2017-04-20T10:17:32.507Z,2650
2017-04-20T10:18:13.418Z,2475
2017-04-20T10:18:54.304Z,2230
2017-04-20T10:19:36.693Z,1445
2017-04-20T10:20:17.571Z,715
2017-04-20T10:20:58.476Z,415
2017-04-20T10:21:39.381Z,675
2017-04-20T10:22:20.279Z,1395
2017-04-20T10:23:01.172Z,2180
2017-04-20T10:23:42.064Z,2695
2017-04-20T10:24:25.531Z,3065
2017-04-20T10:25:06.421Z,3120
2017-04-20T10:25:47.300Z,3135
2017-04-20T10:26:28.208Z,1400
2017-04-20T10:27:09.091Z,3040
2017-04-20T10:27:49.972Z,2885
2017-04-20T10:28:30.860Z,2835
2017-04-20T10:29:11.746Z,1350
2017-04-20T10:29:52.643Z,2760
2017-04-20T10:30:35.421Z,1825
2017-04-20T10:31:16.309Z,1075
2017-04-20T10:31:57.210Z,910
2017-04-20T10:32:38.094Z,1710
2017-04-20T10:33:18.990Z,2600
2017-04-20T10:35:33.088Z,3235
2017-04-20T10:36:13.971Z,3145
2017-04-20T10:38:27.747Z,3035
2017-04-20T10:39:08.726Z,3035
2017-04-20T10:39:52.907Z,3050
2017-04-20T10:40:33.789Z,3070
2017-04-20T10:41:14.704Z,3090
2017-04-20T10:41:55.579Z,3110
2017-04-20T10:42:36.459Z,3060
2017-04-20T10:43:20.040Z,2975
2017-04-20T10:45:33.834Z,2465
2017-04-20T10:46:14.731Z,2485
2017-04-20T10:46:55.648Z,2645
2017-04-20T10:47:36.594Z,2680
2017-04-20T10:48:17.490Z,2735
2017-04-20T10:48:58.386Z,2805
2017-04-20T10:49:39.280Z,2820
2017-04-20T10:50:20.201Z,2905
2017-04-20T10:51:01.090Z,2935
2017-04-20T10:51:41.978Z,3025
2017-04-20T10:52:22.879Z,3120
2017-04-20T10:53:03.778Z,3125
2017-04-20T10:53:44.676Z,3030
2017-04-20T10:54:25.571Z,2840
2017-04-20T10:55:06.467Z,2800
2017-04-20T10:55:47.424Z,3030
2017-04-20T10:56:28.311Z,3285
2017-04-20T10:57:09.201Z,3300
2017-04-20T10:57:50.091Z,3245
2017-04-20T10:58:30.989Z,3165
2017-04-20T10:59:11.884Z,3165
2017-04-20T10:59:52.786Z,2825
2017-04-20T11:00:33.687Z,500
2017-04-20T11:01:14.585Z,405
2017-04-20T11:01:55.483Z,370
2017-04-20T11:02:36.378Z,360
2017-04-20T11:03:17.261Z,355
2017-04-20T11:03:58.213Z,350